createdAt,value
2019-05-12T00:02:31.820Z,6.13
2019-05-12T00:05:14.138Z,6.16
2019-05-12T00:07:58.929Z,6.08
2019-05-12T00:10:41.196Z,6.01
2019-05-12T00:13:15.764Z,5.88
2019-05-12T00:15:57.788Z,5.84
2019-05-12T00:18:32.061Z,5.82
2019-05-12T00:21:19.354Z,5.82
2019-05-12T00:24:11.605Z,5.64
2019-05-12T00:26:58.061Z,5.62
2019-05-12T00:29:48.583Z,5.63
2019-05-12T00:32:22.298Z,5.56
2019-05-12T00:34:55.879Z,5.59
2019-05-12T00:37:29.088Z,5.50
2019-05-12T00:40:12.487Z,5.57
2019-05-12T00:42:57.732Z,5.59
2019-05-12T00:45:30.516Z,5.55
2019-05-12T00:48:19.977Z,5.56
2019-05-12T00:50:53.883Z,5.43
2019-05-12T00:53:39.316Z,5.39
2019-05-12T00:56:03.231Z,5.35
2019-05-12T00:58:45.993Z,5.34
2019-05-12T01:01:29.047Z,5.30
2019-05-12T01:04:12.397Z,5.27
2019-05-12T01:06:45.713Z,5.06
2019-05-12T01:09:19.866Z,5.05
2019-05-12T01:11:53.037Z,4.98
2019-05-12T01:14:39.139Z,4.93
2019-05-12T01:17:21.801Z,5.05
2019-05-12T01:20:04.364Z,5.00
2019-05-12T01:22:50.344Z,4.94
2019-05-12T01:25:22.719Z,4.86
2019-05-12T01:28:05.023Z,4.88
2019-05-12T01:30:39.329Z,4.85
2019-05-12T01:33:13.106Z,4.83
2019-05-12T01:35:48.261Z,4.83
2019-05-12T01:38:22.387Z,4.79
2019-05-12T01:40:58.355Z,4.79
2019-05-12T01:43:40.594Z,4.82
2019-05-12T01:46:14.420Z,4.77
2019-05-12T01:48:49.160Z,4.78
2019-05-12T01:51:22.707Z,4.64
2019-05-12T01:54:10.197Z,4.66
2019-05-12T01:56:31.204Z,4.63
2019-05-12T01:59:05.212Z,4.57
2019-05-12T02:01:39.103Z,4.56
2019-05-12T02:04:21.865Z,4.56
2019-05-12T02:06:57.775Z,4.44
2019-05-12T02:09:33.352Z,4.46
2019-05-12T02:12:08.225Z,4.52
2019-05-12T02:14:42.637Z,4.38
2019-05-12T02:17:17.994Z,4.37
2019-05-12T02:20:00.811Z,4.33
2019-05-12T02:22:43.097Z,4.26
2019-05-12T02:25:18.436Z,4.21
2019-05-12T02:27:52.362Z,4.24
2019-05-12T02:30:35.628Z,4.29
2019-05-12T02:33:17.526Z,4.24
2019-05-12T02:35:51.037Z,4.14
2019-05-12T02:38:25.246Z,4.09
2019-05-12T02:41:07.618Z,4.11
2019-05-12T02:43:41.528Z,4.06
2019-05-12T02:46:25.510Z,4.05
2019-05-12T02:48:59.624Z,3.79
2019-05-12T02:51:44.708Z,3.79
2019-05-12T02:54:47.088Z,3.80
2019-05-12T02:57:14.324Z,3.77
2019-05-12T03:00:05.143Z,3.85
2019-05-12T03:02:38.510Z,3.81
2019-05-12T03:05:20.944Z,3.85
2019-05-12T03:07:56.359Z,3.79
2019-05-12T03:10:38.918Z,3.86
2019-05-12T03:13:14.684Z,3.78
2019-05-12T03:15:46.883Z,3.81
2019-05-12T03:18:20.769Z,3.78
2019-05-12T03:20:54.821Z,3.73
2019-05-12T03:23:28.710Z,3.62
2019-05-12T03:26:15.105Z,3.63
2019-05-12T03:28:56.735Z,3.62
2019-05-12T03:31:32.076Z,3.57
2019-05-12T03:34:09.323Z,3.45
2019-05-12T03:36:43.319Z,3.52
2019-05-12T03:39:16.091Z,3.59
2019-05-12T03:41:50.065Z,3.63
2019-05-12T03:44:25.167Z,3.63
2019-05-12T03:46:58.906Z,3.63
2019-05-12T03:49:34.766Z,3.58
2019-05-12T03:52:08.111Z,3.62
2019-05-12T03:54:51.077Z,3.46
2019-05-12T03:57:34.502Z,3.47
2019-05-12T04:00:08.463Z,3.42
2019-05-12T04:02:45.346Z,3.46
2019-05-12T04:05:26.197Z,3.53
2019-05-12T04:07:59.740Z,3.40
2019-05-12T04:10:35.326Z,3.44
2019-05-12T04:13:08.376Z,3.52
2019-05-12T04:15:41.547Z,3.51
2019-05-12T04:18:24.844Z,3.53
2019-05-12T04:20:58.511Z,3.55
2019-05-12T04:23:34.827Z,3.56
2019-05-12T04:26:12.130Z,3.60
2019-05-12T04:28:45.640Z,3.67
2019-05-12T04:31:17.955Z,3.75
2019-05-12T04:33:54.480Z,3.83
2019-05-12T04:36:26.359Z,3.81
2019-05-12T04:39:00.516Z,3.90
2019-05-12T04:41:35.376Z,4.03
2019-05-12T04:44:08.779Z,4.11
2019-05-12T04:46:44.957Z,4.20
2019-05-12T04:49:26.087Z,4.39
2019-05-12T04:52:08.527Z,4.51
2019-05-12T04:54:44.564Z,4.49
2019-05-12T04:57:21.233Z,4.61
2019-05-12T04:59:54.412Z,4.61
2019-05-12T05:02:39.032Z,4.74
2019-05-12T05:05:14.564Z,4.82
2019-05-12T05:08:04.363Z,4.98
2019-05-12T05:10:47.341Z,5.12
2019-05-12T05:13:21.275Z,5.12
2019-05-12T05:16:05.398Z,5.29
2019-05-12T05:18:54.297Z,5.42
2019-05-12T05:21:37.439Z,5.59
2019-05-12T05:24:19.832Z,5.67
2019-05-12T05:26:54.055Z,5.87
2019-05-12T05:29:27.780Z,5.93
2019-05-12T05:32:00.977Z,6.05
2019-05-12T05:34:36.116Z,6.12
2019-05-12T05:37:18.773Z,6.28
2019-05-12T05:40:07.409Z,6.43
2019-05-12T05:42:43.928Z,6.56
2019-05-12T05:45:22.147Z,6.66
2019-05-12T05:47:54.268Z,6.78
2019-05-12T05:50:29.451Z,6.91
2019-05-12T05:53:03.836Z,7.02
2019-05-12T05:55:37.700Z,7.08
2019-05-12T05:58:11.657Z,7.18
2019-05-12T06:00:45.475Z,7.25
2019-05-12T06:03:23.061Z,7.38
2019-05-12T06:05:54.347Z,7.53
2019-05-12T06:08:28.248Z,7.62
2019-05-12T06:11:26.590Z,7.76
2019-05-12T06:13:54.036Z,7.84
2019-05-12T06:16:27.549Z,7.97
2019-05-12T06:19:00.774Z,8.02
2019-05-12T06:21:38.192Z,8.18
2019-05-12T06:24:15.548Z,8.28
2019-05-12T06:26:56.804Z,8.42
2019-05-12T06:29:22.717Z,8.65
2019-05-12T06:32:10.624Z,8.82
2019-05-12T06:34:43.535Z,8.81
2019-05-12T06:37:25.623Z,8.94
2019-05-12T06:40:00.606Z,8.96
2019-05-12T06:42:34.743Z,9.05
2019-05-12T06:45:08.330Z,9.12
2019-05-12T06:47:45.407Z,9.09
2019-05-12T06:50:17.156Z,9.13
2019-05-12T06:52:50.298Z,9.15
2019-05-12T06:55:23.871Z,9.24
2019-05-12T06:57:58.207Z,9.31
2019-05-12T07:00:40.479Z,9.53
2019-05-12T07:03:14.381Z,9.54
2019-05-12T07:05:49.308Z,9.53
2019-05-12T07:08:29.988Z,9.57
2019-05-12T07:11:01.930Z,9.61
2019-05-12T07:13:34.283Z,9.67
2019-05-12T07:16:19.311Z,9.80
2019-05-12T07:18:50.803Z,9.95
2019-05-12T07:21:27.335Z,10.04
2019-05-12T07:24:06.610Z,10.00
2019-05-12T07:26:35.979Z,10.18
2019-05-12T07:29:09.422Z,10.26
2019-05-12T07:31:44.210Z,10.15
2019-05-12T07:34:18.137Z,10.11
2019-05-12T07:36:54.067Z,10.26
2019-05-12T07:39:47.808Z,10.43
2019-05-12T07:42:15.272Z,10.51
2019-05-12T07:45:03.797Z,10.63
2019-05-12T07:47:48.982Z,10.75
2019-05-12T07:50:34.223Z,11.04
2019-05-12T07:53:16.255Z,11.09
2019-05-12T07:55:58.566Z,11.11
2019-05-12T07:58:33.315Z,11.01
2019-05-12T08:01:08.037Z,10.90
2019-05-12T08:03:43.538Z,10.94
2019-05-12T08:06:25.526Z,11.24
2019-05-12T08:08:59.203Z,11.35
2019-05-12T08:11:43.412Z,11.35
2019-05-12T08:14:25.839Z,11.42
2019-05-12T08:16:54.310Z,11.48
2019-05-12T08:19:28.690Z,11.69
2019-05-12T08:22:04.314Z,11.67
2019-05-12T08:24:43.222Z,11.74
2019-05-12T08:27:14.289Z,11.62
2019-05-12T08:29:54.403Z,11.36
2019-05-12T08:32:27.180Z,11.38
2019-05-12T08:35:14.103Z,11.60
2019-05-12T08:37:56.889Z,11.63
2019-05-12T08:40:46.391Z,11.67
2019-05-12T08:43:18.997Z,11.63
2019-05-12T08:45:53.584Z,11.57
2019-05-12T08:48:27.519Z,11.68
2019-05-12T08:51:05.363Z,11.87
2019-05-12T08:53:38.784Z,12.03
2019-05-12T08:56:23.992Z,12.11
2019-05-12T08:58:56.944Z,12.19
2019-05-12T09:01:39.154Z,12.50
2019-05-12T09:04:18.093Z,12.64
2019-05-12T09:06:59.888Z,12.75
2019-05-12T09:09:33.772Z,12.93
2019-05-12T09:12:16.806Z,13.09
2019-05-12T09:14:59.127Z,12.88
2019-05-12T09:17:34.703Z,12.56
2019-05-12T09:20:17.055Z,12.02
2019-05-12T09:22:52.775Z,11.89
2019-05-12T09:25:39.334Z,12.33
2019-05-12T09:28:28.046Z,12.59
2019-05-12T09:31:03.707Z,12.81
2019-05-12T09:33:46.245Z,12.99
2019-05-12T09:36:29.488Z,12.96
2019-05-12T09:39:05.705Z,12.67
2019-05-12T09:41:42.344Z,12.56
2019-05-12T09:44:13.443Z,12.32
2019-05-12T09:46:47.156Z,12.29
2019-05-12T09:49:22.800Z,12.69
2019-05-12T09:51:56.495Z,12.84
2019-05-12T09:54:35.250Z,13.19
2019-05-12T09:57:04.833Z,13.50
2019-05-12T09:59:37.985Z,13.84
2019-05-12T10:02:21.000Z,13.94
2019-05-12T10:05:00.558Z,14.17
2019-05-12T10:07:31.240Z,14.21
2019-05-12T10:10:14.227Z,13.94
2019-05-12T10:12:56.434Z,13.40
2019-05-12T10:15:30.354Z,13.25
2019-05-12T10:18:06.353Z,13.48
2019-05-12T10:20:48.127Z,13.64
2019-05-12T10:23:25.154Z,13.83
2019-05-12T10:25:55.759Z,13.64
2019-05-12T10:28:43.712Z,13.12
2019-05-12T10:31:18.650Z,13.12
2019-05-12T10:34:24.019Z,13.06
2019-05-12T10:37:09.998Z,12.69
2019-05-12T10:39:54.136Z,13.04
2019-05-12T10:42:27.706Z,13.51
2019-05-12T10:45:03.941Z,13.86
2019-05-12T10:47:36.955Z,13.87
2019-05-12T10:50:19.534Z,13.69
2019-05-12T10:52:53.724Z,12.97
2019-05-12T10:55:36.672Z,13.30
2019-05-12T10:58:10.251Z,13.72
2019-05-12T11:00:44.487Z,13.76
2019-05-12T11:03:18.284Z,13.33
2019-05-12T11:05:54.632Z,13.04
2019-05-12T11:08:26.716Z,12.88
2019-05-12T11:11:01.327Z,13.34
2019-05-12T11:13:46.164Z,13.96
2019-05-12T11:16:22.716Z,14.19
2019-05-12T11:18:54.193Z,13.66
2019-05-12T11:21:39.359Z,13.06
2019-05-12T11:24:13.867Z,13.10
2019-05-12T11:26:47.859Z,13.42
2019-05-12T11:29:23.366Z,13.91
2019-05-12T11:31:57.539Z,14.34
2019-05-12T11:34:39.751Z,14.84
2019-05-12T11:37:13.873Z,15.07
2019-05-12T11:39:47.696Z,14.03
2019-05-12T11:42:21.240Z,13.31
2019-05-12T11:44:55.163Z,13.01
2019-05-12T11:47:29.463Z,13.49
2019-05-12T11:50:13.283Z,13.97
2019-05-12T11:52:51.023Z,14.44
2019-05-12T11:55:29.400Z,14.84
2019-05-12T11:58:00.371Z,15.16
2019-05-12T12:00:37.839Z,15.02
2019-05-12T12:03:24.416Z,15.11
2019-05-12T12:06:06.502Z,15.33
2019-05-12T12:08:40.373Z,15.50
2019-05-12T12:11:18.851Z,15.04
2019-05-12T12:13:53.398Z,14.35
2019-05-12T12:16:34.923Z,14.41
2019-05-12T12:19:08.319Z,14.59
2019-05-12T12:21:48.088Z,14.61
2019-05-12T12:24:31.165Z,14.88
2019-05-12T12:27:10.797Z,14.82
2019-05-12T12:29:44.156Z,14.74
2019-05-12T12:32:20.321Z,14.61
2019-05-12T12:34:54.398Z,14.80
2019-05-12T12:37:28.031Z,15.18
2019-05-12T12:40:04.257Z,15.51
2019-05-12T12:42:44.175Z,15.67
2019-05-12T12:45:36.857Z,15.60
2019-05-12T12:48:08.656Z,15.92
2019-05-12T12:50:44.376Z,16.08
2019-05-12T12:53:27.607Z,15.85
2019-05-12T12:56:01.431Z,15.65
2019-05-12T12:58:34.978Z,15.84
2019-05-12T13:01:14.174Z,15.29
2019-05-12T13:03:44.694Z,15.37
2019-05-12T13:06:34.575Z,15.13
2019-05-12T13:09:21.941Z,15.24
2019-05-12T13:11:55.541Z,15.41
2019-05-12T13:14:38.464Z,15.90
2019-05-12T13:17:20.618Z,16.28
2019-05-12T13:19:58.543Z,16.45
2019-05-12T13:22:29.976Z,16.45
2019-05-12T13:25:18.213Z,16.87
2019-05-12T13:27:53.403Z,16.54
2019-05-12T13:30:26.646Z,16.12
2019-05-12T13:33:00.684Z,15.58
2019-05-12T13:35:50.322Z,15.45
2019-05-12T13:38:23.619Z,15.73
2019-05-12T13:40:57.004Z,15.90
2019-05-12T13:43:30.243Z,15.78
2019-05-12T13:46:03.772Z,15.61
2019-05-12T13:48:38.407Z,16.00
2019-05-12T13:51:20.939Z,15.61
2019-05-12T13:54:03.919Z,15.45
2019-05-12T13:56:38.361Z,14.87
2019-05-12T13:59:12.070Z,15.07
2019-05-12T14:01:47.649Z,15.44
2019-05-12T14:04:30.284Z,15.79
2019-05-12T14:07:09.241Z,15.29
2019-05-12T14:09:39.649Z,15.60
2019-05-12T14:12:22.343Z,15.17
2019-05-12T14:15:05.394Z,14.89
2019-05-12T14:17:43.496Z,15.19
2019-05-12T14:20:25.848Z,15.49
2019-05-12T14:22:59.760Z,15.70
2019-05-12T14:25:46.870Z,16.13
2019-05-12T14:28:33.657Z,16.03
2019-05-12T14:31:05.306Z,16.32
2019-05-12T14:33:39.473Z,16.47
2019-05-12T14:36:21.607Z,16.61
2019-05-12T14:38:49.521Z,17.07
2019-05-12T14:41:26.803Z,17.46
2019-05-12T14:44:03.451Z,16.82
2019-05-12T14:46:40.173Z,16.82
2019-05-12T14:49:11.453Z,16.64
2019-05-12T14:51:53.739Z,17.14
2019-05-12T14:54:40.543Z,16.81
2019-05-12T14:57:29.449Z,16.11
2019-05-12T15:00:11.285Z,16.16
2019-05-12T15:03:05.448Z,16.00
2019-05-12T15:05:36.321Z,16.12
2019-05-12T15:08:09.818Z,15.95
2019-05-12T15:10:43.784Z,16.08
2019-05-12T15:13:17.279Z,15.80
2019-05-12T15:15:58.136Z,15.58
2019-05-12T15:18:26.395Z,15.54
2019-05-12T15:20:59.925Z,15.38
2019-05-12T15:23:37.207Z,15.29
2019-05-12T15:26:15.841Z,15.25
2019-05-12T15:28:45.734Z,15.43
2019-05-12T15:31:27.977Z,15.18
2019-05-12T15:34:03.611Z,14.69
2019-05-12T15:36:52.135Z,14.70
2019-05-12T15:39:21.817Z,14.38
2019-05-12T15:42:04.309Z,13.99
2019-05-12T15:44:38.555Z,13.73
2019-05-12T15:47:26.657Z,13.81
2019-05-12T15:50:05.371Z,13.84
2019-05-12T15:52:48.394Z,13.91
2019-05-12T15:55:36.788Z,13.83
2019-05-12T15:58:10.056Z,13.61
2019-05-12T16:00:50.182Z,13.61
2019-05-12T16:03:26.339Z,13.63
2019-05-12T16:06:01.349Z,13.47
2019-05-12T16:08:34.420Z,13.58
2019-05-12T16:11:16.834Z,13.59
2019-05-12T16:13:54.695Z,13.53
2019-05-12T16:16:27.441Z,13.55
2019-05-12T16:19:08.414Z,13.64
2019-05-12T16:21:54.997Z,13.65
2019-05-12T16:24:29.609Z,13.69
2019-05-12T16:27:03.630Z,13.63
2019-05-12T16:29:58.793Z,13.60
2019-05-12T16:32:39.221Z,13.31
2019-05-12T16:35:07.980Z,13.32
2019-05-12T16:37:53.328Z,13.41
2019-05-12T16:40:27.012Z,13.33
2019-05-12T16:43:00.904Z,13.33
2019-05-12T16:45:34.845Z,13.72
2019-05-12T16:48:26.641Z,13.59
2019-05-12T16:50:57.207Z,13.51
2019-05-12T16:53:30.671Z,13.42
2019-05-12T16:56:05.829Z,13.38
2019-05-12T16:58:44.504Z,13.47
2019-05-12T17:01:24.250Z,13.41
2019-05-12T17:03:55.105Z,13.55
2019-05-12T17:06:34.974Z,13.59
2019-05-12T17:09:06.629Z,13.42
2019-05-12T17:11:47.161Z,13.43
2019-05-12T17:14:14.833Z,13.18
2019-05-12T17:16:57.044Z,13.10
2019-05-12T17:19:30.983Z,12.68
2019-05-12T17:22:04.241Z,12.69
2019-05-12T17:24:38.111Z,12.72
2019-05-12T17:27:15.874Z,12.62
2019-05-12T17:29:48.156Z,12.53
2019-05-12T17:32:23.771Z,12.36
2019-05-12T17:34:57.729Z,12.21
2019-05-12T17:37:41.510Z,12.17
2019-05-12T17:40:20.012Z,12.08
2019-05-12T17:43:06.710Z,12.18
2019-05-12T17:45:34.736Z,12.06
2019-05-12T17:48:08.202Z,11.91
2019-05-12T17:50:46.686Z,11.88
2019-05-12T17:53:17.934Z,11.87
2019-05-12T17:55:53.989Z,11.78
2019-05-12T17:58:29.707Z,11.68
2019-05-12T18:01:03.687Z,11.79
2019-05-12T18:03:39.371Z,11.91
2019-05-12T18:06:14.124Z,11.87
2019-05-12T18:08:48.352Z,11.77
2019-05-12T18:11:23.920Z,11.68
2019-05-12T18:14:02.348Z,11.57
2019-05-12T18:16:33.901Z,11.41
2019-05-12T18:19:09.028Z,11.28
2019-05-12T18:21:44.919Z,11.05
2019-05-12T18:24:17.957Z,10.97
2019-05-12T18:26:56.674Z,10.83
2019-05-12T18:29:44.074Z,10.88
2019-05-12T18:32:17.826Z,10.69
2019-05-12T18:35:04.257Z,10.73
2019-05-12T18:37:54.015Z,10.61
2019-05-12T18:40:42.478Z,10.60
2019-05-12T18:43:16.223Z,10.45
2019-05-12T18:45:57.076Z,10.34
2019-05-12T18:48:25.295Z,10.32
2019-05-12T18:51:11.835Z,10.37
2019-05-12T18:53:57.754Z,10.34
2019-05-12T18:56:29.500Z,10.24
2019-05-12T18:59:11.604Z,10.20
2019-05-12T19:01:38.582Z,10.17
2019-05-12T19:04:14.161Z,10.05
2019-05-12T19:06:46.931Z,9.94
2019-05-12T19:09:20.387Z,9.82
2019-05-12T19:11:53.840Z,9.82
2019-05-12T19:14:34.916Z,9.77
2019-05-12T19:17:03.568Z,9.75
2019-05-12T19:19:46.204Z,9.77
2019-05-12T19:22:21.131Z,9.67
2019-05-12T19:24:56.735Z,9.59
2019-05-12T19:27:29.131Z,9.49
2019-05-12T19:30:13.815Z,9.43
2019-05-12T19:33:00.120Z,9.34
2019-05-12T19:35:33.632Z,9.20
2019-05-12T19:38:15.749Z,9.20
2019-05-12T19:40:55.111Z,9.06
2019-05-12T19:43:23.865Z,9.00
2019-05-12T19:46:03.654Z,8.96
2019-05-12T19:48:47.626Z,8.87
2019-05-12T19:51:23.672Z,8.73
2019-05-12T19:53:45.425Z,8.78
2019-05-12T19:56:34.588Z,8.86
2019-05-12T19:59:04.402Z,8.78
2019-05-12T20:01:37.961Z,8.68
2019-05-12T20:04:13.950Z,8.69
2019-05-12T20:06:46.678Z,8.60
2019-05-12T20:09:20.869Z,8.58
2019-05-12T20:12:09.994Z,8.60
2019-05-12T20:14:38.443Z,8.47
2019-05-12T20:17:11.881Z,8.46
2019-05-12T20:19:45.493Z,8.41
2019-05-12T20:22:18.985Z,8.36
2019-05-12T20:24:53.720Z,8.35
2019-05-12T20:27:27.085Z,8.33
2019-05-12T20:30:43.656Z,8.30
2019-05-12T20:33:14.351Z,8.19
2019-05-12T20:35:49.313Z,8.07
2019-05-12T20:38:26.440Z,7.99
2019-05-12T20:40:58.312Z,7.94
2019-05-12T20:43:37.165Z,7.91
2019-05-12T20:46:12.963Z,7.83
2019-05-12T20:48:44.605Z,7.88
2019-05-12T20:51:20.346Z,7.84
2019-05-12T20:53:54.356Z,7.78
2019-05-12T20:56:26.953Z,7.75
2019-05-12T20:59:00.439Z,7.77
2019-05-12T21:01:33.961Z,7.75
2019-05-12T21:04:07.736Z,7.72
2019-05-12T21:06:50.577Z,7.77
2019-05-12T21:09:24.204Z,7.73
2019-05-12T21:11:57.716Z,7.74
2019-05-12T21:14:33.414Z,7.71
2019-05-12T21:17:18.392Z,7.75
2019-05-12T21:20:04.522Z,7.72
2019-05-12T21:22:47.056Z,7.75
2019-05-12T21:25:23.181Z,7.68
2019-05-12T21:28:07.705Z,7.70
2019-05-12T21:30:42.331Z,7.63
2019-05-12T21:33:16.982Z,7.58
2019-05-12T21:35:50.512Z,7.60
2019-05-12T21:38:27.607Z,7.59
2019-05-12T21:41:02.210Z,7.60
2019-05-12T21:43:44.513Z,7.55
2019-05-12T21:46:19.355Z,7.41
2019-05-12T21:49:10.652Z,7.45
2019-05-12T21:51:58.934Z,7.49
2019-05-12T21:54:29.437Z,7.44
2019-05-12T21:57:02.078Z,7.34
2019-05-12T21:59:39.583Z,7.35
2019-05-12T22:02:19.638Z,7.34
2019-05-12T22:04:56.084Z,7.33
2019-05-12T22:07:29.415Z,7.33
2019-05-12T22:10:04.916Z,7.27
2019-05-12T22:12:47.545Z,7.25
2019-05-12T22:15:24.589Z,7.24
2019-05-12T22:18:00.906Z,7.15
2019-05-12T22:20:46.230Z,7.20
2019-05-12T22:23:18.807Z,7.14
2019-05-12T22:25:55.582Z,7.09
2019-05-12T22:28:27.580Z,7.12
2019-05-12T22:31:01.273Z,7.02
2019-05-12T22:33:34.511Z,7.09
2019-05-12T22:36:14.660Z,7.05
2019-05-12T22:38:45.547Z,6.93
2019-05-12T22:41:30.270Z,6.94
2019-05-12T22:44:03.229Z,6.89
2019-05-12T22:46:38.039Z,6.87
2019-05-12T22:49:16.970Z,6.90
2019-05-12T22:52:02.641Z,6.91
2019-05-12T22:54:33.690Z,6.77
2019-05-12T22:57:17.076Z,6.83
2019-05-12T22:59:50.277Z,6.76
2019-05-12T23:02:28.881Z,6.70
2019-05-12T23:05:10.213Z,6.72
2019-05-12T23:07:43.948Z,6.65
2019-05-12T23:10:17.486Z,6.57
2019-05-12T23:12:57.023Z,6.50
2019-05-12T23:15:26.002Z,6.48
2019-05-12T23:17:59.156Z,6.47
2019-05-12T23:20:43.920Z,6.40
2019-05-12T23:23:25.836Z,6.26
2019-05-12T23:26:00.423Z,6.18
2019-05-12T23:28:40.460Z,6.15
2019-05-12T23:31:13.275Z,5.97
2019-05-12T23:33:50.665Z,5.91
2019-05-12T23:36:35.258Z,5.82
2019-05-12T23:39:00.789Z,5.81
2019-05-12T23:41:48.706Z,5.81
2019-05-12T23:44:23.943Z,5.68
2019-05-12T23:46:57.695Z,5.56
2019-05-12T23:49:33.106Z,5.54
2019-05-12T23:52:06.316Z,5.50
2019-05-12T23:54:39.863Z,5.53
2019-05-12T23:57:15.742Z,5.43
2019-05-12T23:59:50.521Z,5.44
